Terminal Aerodrome Forecast
Issued by NWS Pueblo, CO

Home | Current Version | Previous Version | Text Only | Print | Product List | Glossary On
Versions: 1 2 3 4 5 6 7 8 9 10 11 12 13 14 15 16 17 18 19 20 21
000
FTUS45 KPUB 291120
TAFALS
TAF
KALS 291120Z 2912/3012 VRB05KT P6SM FEW100
     FM291800 19008KT P6SM VCTS SCT100CB SCT160
     FM292000 24013KT P6SM VCTS SCT060CB BKN150
     FM300200 32007KT P6SM VCSH SCT080 SCT150
     FM300600 VRB04KT P6SM SCT150=

USA.gov is the U.S. government's official web portal to all federal, state and local government web resources and services.